Latest Weather Observations for Camden

IDN60801

Issued at 6:05 am EDT Saturday 22 November 2014 (issued every 30 minutes, with the page automatically refreshed every 10 minutes)

About weather observations | Map of weather stations | Latest weather observations for NSW | Other Formats
Station Details ID: 068192 Name: CAMDEN AIRPORT AWS Lat: -34.04 Lon: 150.69 Height: 73.9 m
Data from the previous 72 hours. | See also: Recent months at Camden
Date/Time
EDT
Temp
°C
App
Temp
°C
Dew
Point
Rel
Hum
%
Delta-T
°C
Wind Press
QNH
hPa
Press
MSL
hPa
Rain
since 9 am
mm
Dir
 
Spd
km/h
Gust
km/h
Spd
kts
Gust
kts
22/06:00am 16.8 17.7 14.1 84 1.5 SE 2 6 1 3 1015.2 1015.0 0.0
22/05:30am 16.7 17.8 13.4 81 1.9 SE 0 0 0 0 1014.9 1014.7 0.0
22/05:00am 17.2 17.0 13.7 80 2.0 SSE 7 9 4 5 1014.4 1014.2 0.0
22/04:30am 17.9 17.3 13.6 76 2.4 ESE 9 11 5 6 1014.2 1014.0 0.0
22/04:00am 19.0 19.4 13.6 71 3.1 SE 4 7 2 4 1014.2 1014.0 0.0
22/03:30am 19.4 19.3 14.0 71 3.1 SSE 7 7 4 4 1014.1 1013.9 0.0
22/03:00am 19.6 19.8 14.6 73 2.9 SE 7 15 4 8 1014.2 1014.0 0.0
22/02:30am 19.7 19.5 14.7 73 2.9 SSE 9 15 5 8 1014.2 1014.0 0.0
22/02:00am 19.7 19.9 14.7 73 2.9 SSE 7 15 4 8 1014.4 1014.2 0.0
22/01:30am 19.6 19.8 14.8 74 2.8 ESE 7 11 4 6 1014.4 1014.2 0.0
22/01:00am 19.7 19.1 14.7 73 2.9 SSE 11 15 6 8 1014.6 1014.4 0.0
22/12:30am 19.8 18.8 14.6 72 3.0 SSE 13 19 7 10 1014.8 1014.6 0.0
22/12:00am 20.2 19.3 14.8 71 3.2 S 13 19 7 10 1014.8 1014.6 0.0
 
Date/Time
EDT
Temp
°C
App
Temp
°C
Dew
Point
Rel
Hum
%
Delta-T
°C
Wind Press
QNH
hPa
Press
MSL
hPa
Rain
since 9 am
mm
Dir
 
Spd
km/h
Gust
km/h
Spd
kts
Gust
kts
21/11:30pm 20.5 19.7 15.1 71 3.2 SSE 13 19 7 10 1014.7 1014.5 0.0
21/11:00pm 20.6 18.7 15.2 71 3.2 S 19 28 10 15 1014.6 1014.4 0.0
21/10:30pm 20.8 19.4 15.6 72 3.1 S 17 26 9 14 1014.2 1014.0 0.0
21/10:00pm 20.6 19.2 15.6 73 3.0 S 17 24 9 13 1013.9 1013.7 0.0
21/09:30pm 20.8 19.8 15.6 72 3.1 S 15 24 8 13 1013.5 1013.3 0.0
21/09:00pm 21.2 19.9 15.7 71 3.3 S 17 28 9 15 1012.8 1012.6 0.0
21/08:30pm 21.5 20.2 15.8 70 3.4 S 17 26 9 14 1011.9 1011.7 0.0
21/08:00pm 22.2 20.5 14.8 63 4.4 S 17 30 9 16 1011.1 1010.9 0.0
21/07:30pm 23.1 20.8 14.1 57 5.3 SSE 19 28 10 15 1010.0 1009.8 0.0
21/07:00pm 24.2 20.2 13.1 50 6.5 SSE 26 43 14 23 1009.1 1008.9 0.0
21/06:30pm 26.3 23.3 14.7 48 7.0 SE 24 35 13 19 1007.7 1007.5 0.0
21/06:15pm 26.9 22.9 14.0 45 7.7 SE 28 46 15 25 1007.0 1006.8 0.0
21/06:00pm 35.9 31.4 7.0 17 16.1 WSW 20 28 11 15 1005.9 1005.7 0.0
21/05:30pm 36.7 31.8 4.9 14 17.2 W 20 30 11 16 1005.3 1005.1 0.0
21/05:00pm 37.1 30.3 5.2 14 17.4 W 30 44 16 24 1005.1 1004.9 0.0
21/04:30pm 38.4 32.5 4.0 12 18.5 WNW 24 35 13 19 1004.8 1004.6 0.0
21/04:00pm 37.9 30.8 3.6 12 18.3 WNW 30 56 16 30 1004.7 1004.5 0.0
21/03:30pm 39.1 32.2 4.5 12 18.8 WNW 30 50 16 27 1004.5 1004.2 0.0
21/03:11pm 38.9 31.5 1.8 10 19.3 NW 30 50 16 27 1004.6 1004.3 0.0
21/03:00pm 38.6 31.8 2.9 11 19.0 WNW 28 41 15 22 1004.6 1004.3 0.0
21/02:30pm 38.3 30.5 2.7 11 18.8 W 33 52 18 28 1004.6 1004.3 0.0
21/02:21pm 38.3 29.1 1.3 10 19.1 W 39 57 21 31 1004.7 1004.5 0.0
21/02:18pm 38.6 29.1 1.6 10 19.2 W 41 57 22 31 1004.6 1004.3 0.0
21/02:16pm 39.1 30.0 1.9 10 19.5 NW 39 57 21 31 1004.2 1003.9 0.0
21/02:00pm 38.9 32.1 3.1 11 19.1 WNW 28 43 15 23 1004.8 1004.6 0.0
21/01:30pm 38.2 31.3 2.6 11 18.7 WNW 28 39 15 21 1004.8 1004.6 0.0
21/01:00pm 38.5 31.4 1.5 10 19.2 NW 28 41 15 22 1005.0 1004.8 0.0
21/12:30pm 37.9 31.0 2.4 11 18.6 NW 28 39 15 21 1005.3 1005.1 0.0
21/12:13pm 37.8 30.9 2.3 11 18.5 NW 28 46 15 25 1005.5 1005.3 0.0
21/12:00pm 37.6 29.9 2.1 11 18.5 NW 32 41 17 22 1005.5 1005.3 0.0
21/11:36am 36.7 28.7 1.5 11 18.1 NW 33 52 18 28 1005.7 1005.5 0.0
21/11:30am 36.9 28.9 1.6 11 18.1 NNW 33 43 18 23 1005.7 1005.5 0.0
21/11:00am 36.7 32.5 5.9 15 17.0 N 17 32 9 17 1005.9 1005.7 0.0
21/10:30am 34.3 31.7 9.5 22 14.2 N 13 17 7 9 1006.4 1006.2 0.0
21/10:00am 32.5 30.5 11.6 28 12.3 NNE 13 19 7 10 1006.7 1006.5 0.0
21/09:30am 30.7 28.1 12.1 32 10.9 N 17 22 9 12 1007.0 1006.8 0.0
21/09:00am 29.4 25.9 12.3 34 10.1 NNE 22 26 12 14 1007.3 1007.1 0.0
21/08:30am 28.2 27.1 12.1 37 9.4 N 9 13 5 7 1007.3 1007.1 0.0
21/08:00am 26.4 25.3 12.1 41 8.3 N 9 11 5 6 1007.0 1006.8 0.0
21/07:30am 25.2 24.3 10.6 40 8.2 NW 6 9 3 5 1006.9 1006.7 0.0
21/07:00am 22.3 21.0 11.1 49 6.2 W 9 13 5 7 1006.6 1006.4 0.0
21/06:30am 22.8 21.6 11.5 49 6.3 NNW 9 13 5 7 1006.2 1006.0 0.0
21/06:00am 24.2 22.7 10.5 42 7.6 E 9 15 5 8 1006.3 1006.1 0.0
21/05:30am 26.9 25.0 7.4 29 10.4 W 7 11 4 6 1006.7 1006.5 0.0
21/05:00am 27.7 22.4 7.0 27 11.1 SW 24 30 13 16 1006.8 1006.6 0.0
21/04:42am 26.2 20.7 9.1 34 9.4 W 28 46 15 25 1007.7 1007.5 0.0
21/04:40am 25.9 20.0 10.5 38 8.6 WSW 32 44 17 24 1007.5 1007.3 0.0
21/04:30am 20.0 20.7 17.0 83 1.8 W 9 15 5 8 1007.5 1007.3 0.0
21/04:00am 19.0 21.2 16.6 86 1.5 CALM 0 0 0 0 1005.9 1005.7 0.0
21/03:30am 18.9 21.1 16.5 86 1.4 CALM 0 0 0 0 1005.7 1005.5 0.0
21/03:00am 19.2 20.8 16.8 86 1.5 SW 4 13 2 7 1005.9 1005.7 0.0
21/02:30am 19.1 20.2 17.1 88 1.2 SE 7 11 4 6 1006.4 1006.2 0.0
21/02:00am 19.2 21.6 17.0 87 1.3 CALM 0 0 0 0 1006.5 1006.3 0.0
21/01:30am 19.1 21.4 16.7 86 1.4 CALM 0 0 0 0 1006.7 1006.5 0.0
21/01:00am 19.2 21.5 16.8 86 1.5 CALM 0 0 0 0 1007.0 1006.8 0.0
21/12:30am 19.5 21.7 16.5 83 1.8 CALM 0 0 0 0 1007.3 1007.1 0.0
21/12:00am 19.9 22.1 16.5 81 2.1 CALM 0 0 0 0 1007.8 1007.6 0.0
 
Date/Time
EDT
Temp
°C
App
Temp
°C
Dew
Point
Rel
Hum
%
Delta-T
°C
Wind Press
QNH
hPa
Press
MSL
hPa
Rain
since 9 am
mm
Dir
 
Spd
km/h
Gust
km/h
Spd
kts
Gust
kts
20/11:30pm 20.2 22.6 17.0 82 2.0 CALM 0 0 0 0 1008.2 1008.0 0.0
20/11:00pm 20.7 22.7 16.1 75 2.8 CALM 0 0 0 0 1008.5 1008.3 0.0
20/10:30pm 21.6 23.0 16.3 72 3.2 SSW 4 7 2 4 1008.7 1008.5 0.0
20/10:00pm 22.2 23.3 16.7 71 3.4 SSW 6 6 3 3 1008.8 1008.6 0.0
20/09:30pm 22.3 23.3 16.3 69 3.6 SW 6 7 3 4 1008.8 1008.6 0.0
20/09:00pm 23.8 24.3 16.6 64 4.4 SE 9 11 5 6 1008.4 1008.2 0.0
20/08:30pm 24.5 24.9 16.2 60 5.1 ESE 9 11 5 6 1008.2 1008.0 0.0
20/08:00pm 25.4 26.6 16.0 56 5.8 E 4 9 2 5 1008.1 1007.9 0.0
20/07:30pm 26.6 27.8 15.9 51 6.6 E 4 9 2 5 1007.7 1007.5 0.0
20/07:00pm 27.7 27.8 16.6 50 6.9 ENE 11 24 6 13 1007.1 1006.9 0.0
20/06:30pm 28.0 26.1 16.6 50 7.1 ENE 22 28 12 15 1006.3 1006.1 0.0
20/06:00pm 29.0 27.3 16.2 46 8.0 ENE 20 28 11 15 1006.2 1006.0 0.0
20/05:30pm 31.2 28.6 16.0 40 9.5 ENE 24 33 13 18 1005.9 1005.7 0.0
20/05:00pm 31.5 28.0 14.6 36 10.4 E 26 37 14 20 1006.0 1005.8 0.0
20/04:30pm 34.9 33.2 14.7 29 12.6 NNE 17 24 9 13 1006.1 1005.9 0.0
20/04:00pm 35.6 31.4 7.6 18 15.7 NE 19 32 10 17 1006.2 1006.0 0.0
20/03:30pm 35.6 32.0 8.4 19 15.4 NNE 17 24 9 13 1006.7 1006.5 0.0
20/03:00pm 35.8 33.6 12.1 24 14.3 N 15 24 8 13 1007.3 1007.1 0.0
20/02:30pm 34.5 31.6 11.0 24 13.8 NE 17 28 9 15 1007.8 1007.6 0.0
20/02:00pm 34.4 31.8 12.1 26 13.3 NNE 17 24 9 13 1008.4 1008.2 0.0
20/01:30pm 34.0 31.9 13.5 29 12.5 NNE 17 28 9 15 1009.3 1009.1 0.0
20/01:00pm 32.6 31.2 13.3 31 11.7 N 13 24 7 13 1010.0 1009.8 0.0
20/12:30pm 32.1 30.5 13.8 33 11.1 NNE 15 20 8 11 1010.5 1010.3 0.0
20/12:00pm 31.0 30.7 15.4 38 9.7 N 11 20 6 11 1011.1 1010.9 0.0
20/11:30am 29.3 29.8 16.5 46 8.0 N 9 15 5 8 1011.8 1011.6 0.0
20/11:00am 27.9 27.5 15.2 46 7.8 N 11 17 6 9 1012.7 1012.5 0.0
20/10:30am 26.8 27.5 16.1 52 6.6 N 7 11 4 6 1013.1 1012.9 0.0
20/10:00am 25.1 25.3 14.8 52 6.2 NW 7 11 4 6 1013.6 1013.4 0.0
20/09:30am 24.2 24.7 14.9 56 5.6 NE 6 9 3 5 1013.9 1013.7 0.0
20/09:00am 23.2 23.8 15.3 61 4.7 N 6 11 3 6 1014.3 1014.1 0.0
20/08:30am 21.3 22.2 15.2 68 3.6 N 4 9 2 5 1014.6 1014.4 0.0
20/08:00am 20.7 21.3 15.3 71 3.2 NNE 6 7 3 4 1014.7 1014.5 0.0
20/07:30am 18.8 20.0 14.9 78 2.3 W 2 7 1 4 1015.2 1015.0 0.0
20/07:00am 17.2 18.9 15.2 88 1.2 CALM 0 0 0 0 1015.0 1014.8 0.0
20/06:54am 16.9 18.6 15.2 90 1.0 CALM 0 0 0 0 1015.0 1014.8 0.0
20/06:30am 15.8 17.0 14.8 94 0.6 WNW 2 6 1 3 1015.0 1014.8 0.0
20/06:00am 15.3 15.6 14.5 95 0.5 N 6 7 3 4 1014.8 1014.6 0.0
20/05:30am 15.9 17.4 14.6 92 0.7 CALM 0 0 0 0 1014.8 1014.6 0.0
20/05:13am 16.3 17.9 15.0 92 0.8 CALM 0 0 0 0 1014.6 1014.4 0.0
20/05:00am 16.5 18.0 14.7 89 1.0 CALM 0 0 0 0 1014.7 1014.5 0.0
20/04:30am 16.8 17.3 15.0 89 1.0 WSW 6 7 3 4 1014.7 1014.5 0.0
20/04:00am 17.9 19.0 14.6 81 1.9 ENE 2 6 1 3 1014.8 1014.6 0.0
20/03:30am 18.8 20.5 15.1 79 2.2 CALM 0 0 0 0 1015.1 1014.9 0.0
20/03:00am 19.9 21.3 15.5 76 2.6 WNW 2 6 1 3 1015.6 1015.3 0.0
20/02:30am 19.9 20.4 15.5 76 2.6 N 7 7 4 4 1015.8 1015.5 0.0
20/02:00am 19.8 20.4 15.4 76 2.6 N 6 7 3 4 1016.1 1015.8 0.0
20/01:30am 19.9 20.0 15.5 76 2.6 N 9 11 5 6 1016.3 1016.1 0.0
20/01:00am 20.1 20.2 15.5 75 2.7 N 9 11 5 6 1016.7 1016.5 0.0
20/12:30am 20.0 19.7 15.4 75 2.7 NNE 11 15 6 8 1017.4 1017.2 0.0
20/12:00am 20.0 19.7 15.4 75 2.7 NNE 11 15 6 8 1017.5 1017.3 0.0
 
Date/Time
EDT
Temp
°C
App
Temp
°C
Dew
Point
Rel
Hum
%
Delta-T
°C
Wind Press
QNH
hPa
Press
MSL
hPa
Rain
since 9 am
mm
Dir
 
Spd
km/h
Gust
km/h
Spd
kts
Gust
kts
19/11:30pm 19.9 19.5 15.3 75 2.7 NNE 11 15 6 8 1017.6 1017.4 0.0
19/11:00pm 19.9 19.1 15.1 74 2.8 NNE 13 15 7 8 1017.6 1017.4 0.0
19/10:30pm 19.9 18.7 15.1 74 2.8 NE 15 19 8 10 1017.8 1017.6 0.0
19/10:00pm 19.6 19.4 14.8 74 2.8 NE 9 11 5 6 1017.5 1017.3 0.0
19/09:30pm 19.5 18.5 14.5 73 2.9 NE 13 15 7 8 1017.5 1017.3 0.0
19/09:00pm 19.7 18.9 13.9 69 3.3 ENE 11 15 6 8 1017.2 1017.0 0.0
19/08:30pm 19.7 18.5 14.1 70 3.2 ENE 13 17 7 9 1017.0 1016.8 0.0
19/08:00pm 19.7 18.5 13.9 69 3.3 E 13 24 7 13 1017.1 1016.9 0.0
19/07:30pm 20.4 18.4 13.8 66 3.8 E 17 26 9 14 1016.6 1016.4 0.0
19/07:00pm 21.3 18.7 13.7 62 4.4 ENE 20 30 11 16 1016.2 1015.9 0.0
19/06:30pm 22.3 19.5 14.2 60 4.8 ENE 22 33 12 18 1016.0 1015.7 0.0
19/06:00pm 23.6 21.4 14.3 56 5.5 ENE 19 28 10 15 1015.8 1015.5 0.0
19/05:30pm 24.0 20.9 14.4 55 5.7 ENE 24 33 13 18 1016.0 1015.7 0.0
19/05:00pm 24.6 21.7 14.1 52 6.2 ENE 22 32 12 17 1016.1 1015.8 0.0
19/04:30pm 25.8 23.1 14.6 50 6.7 ENE 22 35 12 19 1016.2 1015.9 0.0
19/04:00pm 25.6 23.4 14.4 50 6.7 E 19 35 10 19 1016.6 1016.4 0.0
19/03:30pm 26.0 22.7 14.1 47 7.1 ENE 24 33 13 18 1017.0 1016.8 0.0
19/03:00pm 26.4 24.1 14.2 47 7.3 ENE 19 28 10 15 1017.4 1017.2 0.0
19/02:30pm 25.9 22.6 14.1 48 7.0 ENE 24 32 13 17 1017.8 1017.6 0.0
19/02:00pm 25.6 22.6 13.8 48 7.0 E 22 28 12 15 1018.4 1018.2 0.0
19/01:30pm 26.6 23.8 14.4 47 7.3 NE 22 28 12 15 1018.9 1018.7 0.0
19/01:00pm 26.0 23.4 13.8 47 7.2 ENE 20 26 11 14 1019.4 1019.2 0.0
19/12:30pm 24.0 21.9 12.3 48 6.7 N 15 24 8 13 1019.9 1019.7 0.0
19/12:00pm 24.3 21.2 11.6 45 7.2 N 19 26 10 14 1020.3 1020.1 0.0
19/11:30am 23.5 21.6 11.9 48 6.6 NNE 13 20 7 11 1020.7 1020.5 0.0
19/11:00am 23.4 22.2 12.7 51 6.1 N 11 19 6 10 1021.2 1021.0 0.0
19/10:30am 22.1 20.5 11.5 51 5.9 N 11 17 6 9 1021.5 1021.3 0.0
19/10:00am 21.8 20.2 12.9 57 5.1 N 13 19 7 10 1021.8 1021.6 0.0
19/09:30am 21.6 20.3 12.5 56 5.2 NE 11 26 6 14 1021.9 1021.7 0.0
19/09:00am 20.3 19.7 13.5 65 3.9 NNE 9 11 5 6 1022.0 1021.8 0.0
19/08:30am 19.5 18.9 13.4 68 3.5 NNE 9 13 5 7 1021.9 1021.7 0.0
19/08:00am 19.1 18.9 13.7 71 3.1 E 7 13 4 7 1021.9 1021.7 0.0
19/07:30am 18.9 18.4 13.7 72 3.0 E 9 13 5 7 1021.6 1021.4 0.0
19/07:00am 17.9 18.7 14.8 82 1.8 ESE 4 7 2 4 1021.4 1021.2 0.0
19/06:30am 16.7 18.2 14.7 88 1.2 CALM 0 0 0 0 1021.5 1021.3 0.0

Other Formats:

Comma delimited format used in spreadsheet applications
http://www.bom.gov.au/fwo/IDN60801/IDN60801.94755.axf

JavaScript Object Notation format (JSON) in row-major order
http://www.bom.gov.au/fwo/IDN60801/IDN60801.94755.json